sensor_id;sensor_type;location;lat;lon;timestamp;temperature;humidity
75357;HTU21D;63946;51.986;5.930;2023-05-24T05:37:26;12.28;62.59
75357;HTU21D;63946;51.986;5.930;2023-05-24T05:40:14;12.33;62.54
75357;HTU21D;63946;51.986;5.930;2023-05-24T05:42:43;12.48;62.34
75357;HTU21D;63946;51.986;5.930;2023-05-24T05:45:12;12.47;62.28
75357;HTU21D;63946;51.986;5.930;2023-05-24T05:47:41;12.40;62.53
75357;HTU21D;63946;51.986;5.930;2023-05-24T05:50:10;12.38;62.69
75357;HTU21D;63946;51.986;5.930;2023-05-24T05:52:39;12.46;62.67
75357;HTU21D;63946;51.986;5.930;2023-05-24T05:55:08;12.64;62.40
75357;HTU21D;63946;51.986;5.930;2023-05-24T05:57:37;12.73;62.23
75357;HTU21D;63946;51.986;5.930;2023-05-24T06:00:06;12.77;62.24
75357;HTU21D;63946;51.986;5.930;2023-05-24T06:02:38;12.79;62.07
75357;HTU21D;63946;51.986;5.930;2023-05-24T06:05:09;12.79;61.88
75357;HTU21D;63946;51.986;5.930;2023-05-24T06:07:44;12.71;61.99
75357;HTU21D;63946;51.986;5.930;2023-05-24T06:10:13;12.64;62.15
75357;HTU21D;63946;51.986;5.930;2023-05-24T06:12:42;12.71;62.16
75357;HTU21D;63946;51.986;5.930;2023-05-24T06:15:11;12.73;62.02
75357;HTU21D;63946;51.986;5.930;2023-05-24T06:17:40;12.81;61.86
75357;HTU21D;63946;51.986;5.930;2023-05-24T06:20:12;12.87;61.79
75357;HTU21D;63946;51.986;5.930;2023-05-24T06:22:41;12.94;61.82
75357;HTU21D;63946;51.986;5.930;2023-05-24T06:25:11;13.00;61.73
75357;HTU21D;63946;51.986;5.930;2023-05-24T06:27:44;13.07;61.69
75357;HTU21D;63946;51.986;5.930;2023-05-24T06:30:13;13.24;61.25
75357;HTU21D;63946;51.986;5.930;2023-05-24T06:32:42;13.40;60.90
75357;HTU21D;63946;51.986;5.930;2023-05-24T06:35:10;13.52;60.48
75357;HTU21D;63946;51.986;5.930;2023-05-24T06:37:39;13.66;60.15
75357;HTU21D;63946;51.986;5.930;2023-05-24T06:40:09;13.89;59.59
75357;HTU21D;63946;51.986;5.930;2023-05-24T06:42:38;14.04;59.28
75357;HTU21D;63946;51.986;5.930;2023-05-24T06:45:07;14.09;59.09
75357;HTU21D;63946;51.986;5.930;2023-05-24T06:47:36;14.17;59.04
75357;HTU21D;63946;51.986;5.930;2023-05-24T06:50:09;14.37;58.68
75357;HTU21D;63946;51.986;5.930;2023-05-24T06:52:48;14.42;58.48
75357;HTU21D;63946;51.986;5.930;2023-05-24T06:55:21;14.50;58.35
75357;HTU21D;63946;51.986;5.930;2023-05-24T06:57:50;14.53;58.38
75357;HTU21D;63946;51.986;5.930;2023-05-24T07:00:19;14.48;58.46
75357;HTU21D;63946;51.986;5.930;2023-05-24T07:02:48;14.43;58.76
75357;HTU21D;63946;51.986;5.930;2023-05-24T07:05:17;14.32;58.77
75357;HTU21D;63946;51.986;5.930;2023-05-24T07:07:48;14.17;59.13
75357;HTU21D;63946;51.986;5.930;2023-05-24T07:10:17;14.13;59.43
75357;HTU21D;63946;51.986;5.930;2023-05-24T07:12:49;14.15;59.39
75357;HTU21D;63946;51.986;5.930;2023-05-24T07:15:21;14.14;59.44
75357;HTU21D;63946;51.986;5.930;2023-05-24T07:17:49;14.14;59.25
75357;HTU21D;63946;51.986;5.930;2023-05-24T07:20:18;14.07;59.42
75357;HTU21D;63946;51.986;5.930;2023-05-24T07:22:47;14.08;59.52
75357;HTU21D;63946;51.986;5.930;2023-05-24T07:25:16;14.11;59.36
75357;HTU21D;63946;51.986;5.930;2023-05-24T07:27:45;14.14;59.40
75357;HTU21D;63946;51.986;5.930;2023-05-24T07:30:14;14.22;59.28
75357;HTU21D;63946;51.986;5.930;2023-05-24T07:32:43;14.28;59.08
75357;HTU21D;63946;51.986;5.930;2023-05-24T07:35:12;14.30;58.77
75357;HTU21D;63946;51.986;5.930;2023-05-24T07:37:41;14.27;58.83
75357;HTU21D;63946;51.986;5.930;2023-05-24T07:40:10;14.27;58.91
75357;HTU21D;63946;51.986;5.930;2023-05-24T07:42:42;14.50;58.53
75357;HTU21D;63946;51.986;5.930;2023-05-24T07:45:12;14.65;58.16
75357;HTU21D;63946;51.986;5.930;2023-05-24T07:47:41;14.96;57.47
75357;HTU21D;63946;51.986;5.930;2023-05-24T07:50:10;15.06;57.09
75357;HTU21D;63946;51.986;5.930;2023-05-24T07:52:41;15.15;56.84
75357;HTU21D;63946;51.986;5.930;2023-05-24T07:55:10;15.39;56.46
75357;HTU21D;63946;51.986;5.930;2023-05-24T07:57:39;15.53;55.76
75357;HTU21D;63946;51.986;5.930;2023-05-24T08:00:08;15.67;55.22
75357;HTU21D;63946;51.986;5.930;2023-05-24T08:02:42;15.87;54.87
75357;HTU21D;63946;51.986;5.930;2023-05-24T08:05:11;16.30;53.63
75357;HTU21D;63946;51.986;5.930;2023-05-24T08:07:41;16.49;52.37
75357;HTU21D;63946;51.986;5.930;2023-05-24T08:10:10;16.46;51.67
75357;HTU21D;63946;51.986;5.930;2023-05-24T08:12:40;16.51;51.75
75357;HTU21D;63946;51.986;5.930;2023-05-24T08:15:10;16.49;51.98
75357;HTU21D;63946;51.986;5.930;2023-05-24T08:17:38;16.91;51.46
75357;HTU21D;63946;51.986;5.930;2023-05-24T08:20:10;17.05;50.90
75357;HTU21D;63946;51.986;5.930;2023-05-24T08:22:41;17.11;50.82
75357;HTU21D;63946;51.986;5.930;2023-05-24T08:25:10;16.94;49.56
75357;HTU21D;63946;51.986;5.930;2023-05-24T08:27:45;16.39;50.57
75357;HTU21D;63946;51.986;5.930;2023-05-24T08:30:14;16.24;51.50
75357;HTU21D;63946;51.986;5.930;2023-05-24T08:32:43;16.21;52.01
75357;HTU21D;63946;51.986;5.930;2023-05-24T08:35:12;16.20;51.87
75357;HTU21D;63946;51.986;5.930;2023-05-24T08:37:41;16.15;52.15
75357;HTU21D;63946;51.986;5.930;2023-05-24T08:40:10;16.17;52.21
75357;HTU21D;63946;51.986;5.930;2023-05-24T08:42:40;16.16;52.05
75357;HTU21D;63946;51.986;5.930;2023-05-24T08:45:14;16.17;51.94
75357;HTU21D;63946;51.986;5.930;2023-05-24T08:47:43;16.17;51.97
75357;HTU21D;63946;51.986;5.930;2023-05-24T08:50:14;16.17;51.86
75357;HTU21D;63946;51.986;5.930;2023-05-24T08:52:44;16.17;51.85
75357;HTU21D;63946;51.986;5.930;2023-05-24T08:55:14;16.15;52.07
75357;HTU21D;63946;51.986;5.930;2023-05-24T08:57:44;16.13;51.59
75357;HTU21D;63946;51.986;5.930;2023-05-24T09:00:14;16.02;51.75
75357;HTU21D;63946;51.986;5.930;2023-05-24T09:02:44;16.05;51.46
75357;HTU21D;63946;51.986;5.930;2023-05-24T09:05:14;16.02;50.95
75357;HTU21D;63946;51.986;5.930;2023-05-24T09:07:50;16.00;50.98
75357;HTU21D;63946;51.986;5.930;2023-05-24T09:10:21;16.12;50.96
75357;HTU21D;63946;51.986;5.930;2023-05-24T09:12:54;16.22;50.73
75357;HTU21D;63946;51.986;5.930;2023-05-24T09:15:24;16.26;50.76
75357;HTU21D;63946;51.986;5.930;2023-05-24T09:17:53;16.27;50.71
75357;HTU21D;63946;51.986;5.930;2023-05-24T09:20:22;16.25;50.70
75357;HTU21D;63946;51.986;5.930;2023-05-24T09:22:52;16.21;50.59
75357;HTU21D;63946;51.986;5.930;2023-05-24T09:25:22;16.25;50.43
75357;HTU21D;63946;51.986;5.930;2023-05-24T09:27:55;16.34;50.09
75357;HTU21D;63946;51.986;5.930;2023-05-24T09:30:26;16.45;49.95
75357;HTU21D;63946;51.986;5.930;2023-05-24T09:32:59;16.55;49.58
75357;HTU21D;63946;51.986;5.930;2023-05-24T09:35:30;16.51;49.22
75357;HTU21D;63946;51.986;5.930;2023-05-24T09:37:59;16.44;49.35
75357;HTU21D;63946;51.986;5.930;2023-05-24T09:40:29;16.45;49.56
75357;HTU21D;63946;51.986;5.930;2023-05-24T09:43:07;16.49;49.61
75357;HTU21D;63946;51.986;5.930;2023-05-24T09:45:46;16.49;49.32
75357;HTU21D;63946;51.986;5.930;2023-05-24T09:48:19;16.51;49.31
75357;HTU21D;63946;51.986;5.930;2023-05-24T09:51:05;16.57;49.21
75357;HTU21D;63946;51.986;5.930;2023-05-24T09:53:45;16.63;49.31
75357;HTU21D;63946;51.986;5.930;2023-05-24T09:56:17;16.65;49.19
75357;HTU21D;63946;51.986;5.930;2023-05-24T09:58:46;16.67;49.09
75357;HTU21D;63946;51.986;5.930;2023-05-24T10:01:15;16.59;49.06
75357;HTU21D;63946;51.986;5.930;2023-05-24T10:03:56;16.51;48.74
75357;HTU21D;63946;51.986;5.930;2023-05-24T10:06:30;16.44;49.21
75357;HTU21D;63946;51.986;5.930;2023-05-24T10:09:03;16.32;49.10
75357;HTU21D;63946;51.986;5.930;2023-05-24T10:11:36;16.32;49.52
75357;HTU21D;63946;51.986;5.930;2023-05-24T10:14:05;16.39;49.50
75357;HTU21D;63946;51.986;5.930;2023-05-24T10:16:34;16.35;48.80
75357;HTU21D;63946;51.986;5.930;2023-05-24T10:19:04;16.30;48.70
75357;HTU21D;63946;51.986;5.930;2023-05-24T10:21:35;16.22;48.89
75357;HTU21D;63946;51.986;5.930;2023-05-24T10:24:08;16.19;48.65
75357;HTU21D;63946;51.986;5.930;2023-05-24T10:26:39;16.11;48.76
75357;HTU21D;63946;51.986;5.930;2023-05-24T10:29:16;16.06;48.68
75357;HTU21D;63946;51.986;5.930;2023-05-24T10:31:51;16.02;48.73
75357;HTU21D;63946;51.986;5.930;2023-05-24T10:34:20;16.01;48.60
75357;HTU21D;63946;51.986;5.930;2023-05-24T10:36:50;16.01;48.79
75357;HTU21D;63946;51.986;5.930;2023-05-24T10:39:21;16.06;48.37
75357;HTU21D;63946;51.986;5.930;2023-05-24T10:41:50;16.06;48.42
75357;HTU21D;63946;51.986;5.930;2023-05-24T10:44:19;16.21;48.62
75357;HTU21D;63946;51.986;5.930;2023-05-24T10:47:05;16.41;48.24
75357;HTU21D;63946;51.986;5.930;2023-05-24T10:49:36;16.59;48.09
75357;HTU21D;63946;51.986;5.930;2023-05-24T10:52:08;16.89;47.60
75357;HTU21D;63946;51.986;5.930;2023-05-24T10:54:38;17.41;46.21
75357;HTU21D;63946;51.986;5.930;2023-05-24T10:57:07;17.69;45.81
75357;HTU21D;63946;51.986;5.930;2023-05-24T10:59:40;17.87;44.48
75357;HTU21D;63946;51.986;5.930;2023-05-24T11:02:10;18.05;44.64
75357;HTU21D;63946;51.986;5.930;2023-05-24T11:04:44;18.02;43.96
75357;HTU21D;63946;51.986;5.930;2023-05-24T11:07:14;17.72;44.73
75357;HTU21D;63946;51.986;5.930;2023-05-24T11:09:46;17.62;45.48
75357;HTU21D;63946;51.986;5.930;2023-05-24T11:12:21;17.81;45.23
75357;HTU21D;63946;51.986;5.930;2023-05-24T11:14:51;17.82;44.30
75357;HTU21D;63946;51.986;5.930;2023-05-24T11:17:22;17.81;44.57
75357;HTU21D;63946;51.986;5.930;2023-05-24T11:19:52;17.88;44.74
75357;HTU21D;63946;51.986;5.930;2023-05-24T11:22:25;18.00;45.15
75357;HTU21D;63946;51.986;5.930;2023-05-24T11:24:55;18.18;45.11
75357;HTU21D;63946;51.986;5.930;2023-05-24T11:27:29;18.25;44.51
75357;HTU21D;63946;51.986;5.930;2023-05-24T11:30:00;18.05;45.09
75357;HTU21D;63946;51.986;5.930;2023-05-24T11:32:33;18.06;45.24
75357;HTU21D;63946;51.986;5.930;2023-05-24T11:35:06;18.06;45.22
75357;HTU21D;63946;51.986;5.930;2023-05-24T11:37:39;18.05;45.49
75357;HTU21D;63946;51.986;5.930;2023-05-24T11:40:12;18.07;45.03
75357;HTU21D;63946;51.986;5.930;2023-05-24T11:42:42;17.98;45.38
75357;HTU21D;63946;51.986;5.930;2023-05-24T11:45:11;18.03;45.38
75357;HTU21D;63946;51.986;5.930;2023-05-24T11:47:47;18.00;44.77
75357;HTU21D;63946;51.986;5.930;2023-05-24T11:50:22;17.98;44.99
75357;HTU21D;63946;51.986;5.930;2023-05-24T11:52:51;17.98;45.04
75357;HTU21D;63946;51.986;5.930;2023-05-24T11:55:23;18.14;45.09
75357;HTU21D;63946;51.986;5.930;2023-05-24T11:57:57;18.30;45.01
75357;HTU21D;63946;51.986;5.930;2023-05-24T12:00:26;18.41;44.79
75357;HTU21D;63946;51.986;5.930;2023-05-24T12:02:59;18.74;44.32
75357;HTU21D;63946;51.986;5.930;2023-05-24T12:05:36;19.07;43.85
75357;HTU21D;63946;51.986;5.930;2023-05-24T12:08:07;19.05;43.64
75357;HTU21D;63946;51.986;5.930;2023-05-24T12:10:41;18.96;43.59
75357;HTU21D;63946;51.986;5.930;2023-05-24T12:13:23;18.82;43.71
75357;HTU21D;63946;51.986;5.930;2023-05-24T12:15:53;18.78;43.87
75357;HTU21D;63946;51.986;5.930;2023-05-24T12:18:24;18.76;44.09
75357;HTU21D;63946;51.986;5.930;2023-05-24T12:20:53;18.78;43.75
75357;HTU21D;63946;51.986;5.930;2023-05-24T12:23:24;18.67;43.79
75357;HTU21D;63946;51.986;5.930;2023-05-24T12:26:00;18.68;43.96
75357;HTU21D;63946;51.986;5.930;2023-05-24T12:28:34;18.66;43.80
75357;HTU21D;63946;51.986;5.930;2023-05-24T12:31:04;18.65;44.06
75357;HTU21D;63946;51.986;5.930;2023-05-24T12:33:36;18.57;44.21
75357;HTU21D;63946;51.986;5.930;2023-05-24T12:36:06;18.42;43.23
75357;HTU21D;63946;51.986;5.930;2023-05-24T12:38:35;18.54;43.42
75357;HTU21D;63946;51.986;5.930;2023-05-24T12:41:04;18.93;43.11
75357;HTU21D;63946;51.986;5.930;2023-05-24T12:43:33;19.39;42.22
75357;HTU21D;63946;51.986;5.930;2023-05-24T12:46:03;19.50;41.58
75357;HTU21D;63946;51.986;5.930;2023-05-24T12:48:32;19.37;41.48
75357;HTU21D;63946;51.986;5.930;2023-05-24T12:51:01;19.01;41.74
75357;HTU21D;63946;51.986;5.930;2023-05-24T12:53:30;18.84;42.68
75357;HTU21D;63946;51.986;5.930;2023-05-24T12:56:02;18.84;42.71
75357;HTU21D;63946;51.986;5.930;2023-05-24T12:58:31;18.93;42.92
75357;HTU21D;63946;51.986;5.930;2023-05-24T13:01:00;19.43;42.51
75357;HTU21D;63946;51.986;5.930;2023-05-24T13:03:31;19.97;41.93
75357;HTU21D;63946;51.986;5.930;2023-05-24T13:06:16;20.29;41.27
75357;HTU21D;63946;51.986;5.930;2023-05-24T13:08:53;19.97;40.97
75357;HTU21D;63946;51.986;5.930;2023-05-24T13:11:22;19.47;41.54
75357;HTU21D;63946;51.986;5.930;2023-05-24T13:13:52;19.16;42.41
75357;HTU21D;63946;51.986;5.930;2023-05-24T13:16:21;18.87;42.80
75357;HTU21D;63946;51.986;5.930;2023-05-24T13:18:50;18.72;43.19
75357;HTU21D;63946;51.986;5.930;2023-05-24T13:21:20;18.67;43.16
75357;HTU21D;63946;51.986;5.930;2023-05-24T13:23:49;18.62;42.82
75357;HTU21D;63946;51.986;5.930;2023-05-24T13:26:18;18.50;42.71
75357;HTU21D;63946;51.986;5.930;2023-05-24T13:28:49;18.33;42.69
75357;HTU21D;63946;51.986;5.930;2023-05-24T13:31:17;18.28;42.90
75357;HTU21D;63946;51.986;5.930;2023-05-24T13:33:46;18.26;43.19
75357;HTU21D;63946;51.986;5.930;2023-05-24T13:36:16;18.28;43.09
75357;HTU21D;63946;51.986;5.930;2023-05-24T13:38:45;18.59;42.98
75357;HTU21D;63946;51.986;5.930;2023-05-24T13:41:17;19.03;42.07
75357;HTU21D;63946;51.986;5.930;2023-05-24T13:43:46;18.93;41.99
75357;HTU21D;63946;51.986;5.930;2023-05-24T13:46:15;18.91;42.44
75357;HTU21D;63946;51.986;5.930;2023-05-24T13:48:44;18.92;42.62
75357;HTU21D;63946;51.986;5.930;2023-05-24T13:51:13;18.80;42.17
75357;HTU21D;63946;51.986;5.930;2023-05-24T13:53:45;18.66;42.08
75357;HTU21D;63946;51.986;5.930;2023-05-24T13:56:16;18.63;41.73
75357;HTU21D;63946;51.986;5.930;2023-05-24T13:58:45;18.63;42.05
75357;HTU21D;63946;51.986;5.930;2023-05-24T14:01:14;18.65;42.33
75357;HTU21D;63946;51.986;5.930;2023-05-24T14:03:43;18.53;42.39
75357;HTU21D;63946;51.986;5.930;2023-05-24T14:06:12;18.37;42.75
75357;HTU21D;63946;51.986;5.930;2023-05-24T14:08:40;18.18;42.60
75357;HTU21D;63946;51.986;5.930;2023-05-24T14:11:12;18.05;42.92
75357;HTU21D;63946;51.986;5.930;2023-05-24T14:13:41;17.94;43.21
75357;HTU21D;63946;51.986;5.930;2023-05-24T14:16:10;17.93;42.55
75357;HTU21D;63946;51.986;5.930;2023-05-24T14:18:39;17.83;42.45
75357;HTU21D;63946;51.986;5.930;2023-05-24T14:21:08;17.82;42.74
75357;HTU21D;63946;51.986;5.930;2023-05-24T14:23:37;17.90;42.72
75357;HTU21D;63946;51.986;5.930;2023-05-24T14:26:07;17.99;42.39
75357;HTU21D;63946;51.986;5.930;2023-05-24T14:28:39;18.00;42.19
75357;HTU21D;63946;51.986;5.930;2023-05-24T14:31:10;18.07;42.48
75357;HTU21D;63946;51.986;5.930;2023-05-24T14:33:40;18.09;42.36
75357;HTU21D;63946;51.986;5.930;2023-05-24T14:36:11;18.03;42.26
75357;HTU21D;63946;51.986;5.930;2023-05-24T14:38:40;17.91;42.58
75357;HTU21D;63946;51.986;5.930;2023-05-24T14:41:12;17.84;43.18
75357;HTU21D;63946;51.986;5.930;2023-05-24T14:43:40;17.79;43.66
75357;HTU21D;63946;51.986;5.930;2023-05-24T14:46:15;17.69;44.14
75357;HTU21D;63946;51.986;5.930;2023-05-24T14:48:44;17.47;44.63
75357;HTU21D;63946;51.986;5.930;2023-05-24T14:51:13;17.35;44.93
75357;HTU21D;63946;51.986;5.930;2023-05-24T14:53:42;17.30;44.70
75357;HTU21D;63946;51.986;5.930;2023-05-24T14:56:12;17.28;44.61
75357;HTU21D;63946;51.986;5.930;2023-05-24T14:58:43;17.26;44.67
75357;HTU21D;63946;51.986;5.930;2023-05-24T15:01:12;17.26;44.58
75357;HTU21D;63946;51.986;5.930;2023-05-24T15:03:44;17.24;44.54
75357;HTU21D;63946;51.986;5.930;2023-05-24T15:06:13;17.22;44.61
75357;HTU21D;63946;51.986;5.930;2023-05-24T15:08:42;17.17;44.92
75357;HTU21D;63946;51.986;5.930;2023-05-24T15:11:13;17.14;44.96
75357;HTU21D;63946;51.986;5.930;2023-05-24T15:13:44;17.16;45.07
75357;HTU21D;63946;51.986;5.930;2023-05-24T15:16:20;17.09;45.05
75357;HTU21D;63946;51.986;5.930;2023-05-24T15:18:48;17.07;45.15
75357;HTU21D;63946;51.986;5.930;2023-05-24T15:21:21;17.10;45.34
75357;HTU21D;63946;51.986;5.930;2023-05-24T15:23:52;17.21;45.23
75357;HTU21D;63946;51.986;5.930;2023-05-24T15:26:21;17.29;44.89
75357;HTU21D;63946;51.986;5.930;2023-05-24T15:28:50;17.38;44.37
75357;HTU21D;63946;51.986;5.930;2023-05-24T15:31:22;17.34;44.20
75357;HTU21D;63946;51.986;5.930;2023-05-24T15:33:51;17.24;44.60
75357;HTU21D;63946;51.986;5.930;2023-05-24T15:36:20;17.20;44.69
75357;HTU21D;63946;51.986;5.930;2023-05-24T15:38:52;17.26;44.99
75357;HTU21D;63946;51.986;5.930;2023-05-24T15:41:21;17.29;45.13
75357;HTU21D;63946;51.986;5.930;2023-05-24T15:43:50;17.25;45.14
75357;HTU21D;63946;51.986;5.930;2023-05-24T15:46:20;17.24;45.41
75357;HTU21D;63946;51.986;5.930;2023-05-24T15:48:49;17.24;45.64
75357;HTU21D;63946;51.986;5.930;2023-05-24T15:51:18;17.30;45.65
75357;HTU21D;63946;51.986;5.930;2023-05-24T15:53:48;17.32;45.51
75357;HTU21D;63946;51.986;5.930;2023-05-24T15:56:19;17.32;45.61
75357;HTU21D;63946;51.986;5.930;2023-05-24T15:58:48;17.31;45.68
75357;HTU21D;63946;51.986;5.930;2023-05-24T16:01:17;17.31;45.64
75357;HTU21D;63946;51.986;5.930;2023-05-24T16:03:45;17.32;45.84
75357;HTU21D;63946;51.986;5.930;2023-05-24T16:06:17;17.22;45.58
75357;HTU21D;63946;51.986;5.930;2023-05-24T16:08:45;17.15;45.81
75357;HTU21D;63946;51.986;5.930;2023-05-24T16:11:14;17.15;45.64
75357;HTU21D;63946;51.986;5.930;2023-05-24T16:13:43;17.17;45.50
75357;HTU21D;63946;51.986;5.930;2023-05-24T16:16:15;17.13;45.80
75357;HTU21D;63946;51.986;5.930;2023-05-24T16:18:48;17.05;45.74
75357;HTU21D;63946;51.986;5.930;2023-05-24T16:21:17;16.95;46.23
75357;HTU21D;63946;51.986;5.930;2023-05-24T16:23:46;16.92;46.37
75357;HTU21D;63946;51.986;5.930;2023-05-24T16:26:17;16.96;46.50
75357;HTU21D;63946;51.986;5.930;2023-05-24T16:28:46;17.04;46.51
75357;HTU21D;63946;51.986;5.930;2023-05-24T16:31:14;17.05;46.24
75357;HTU21D;63946;51.986;5.930;2023-05-24T16:33:43;17.02;46.18
75357;HTU21D;63946;51.986;5.930;2023-05-24T16:36:12;17.01;46.01
75357;HTU21D;63946;51.986;5.930;2023-05-24T16:38:41;16.96;45.87
75357;HTU21D;63946;51.986;5.930;2023-05-24T16:41:10;16.88;46.11
75357;HTU21D;63946;51.986;5.930;2023-05-24T16:43:39;16.80;46.36
75357;HTU21D;63946;51.986;5.930;2023-05-24T16:46:08;16.72;46.55
75357;HTU21D;63946;51.986;5.930;2023-05-24T16:48:38;16.71;46.76
75357;HTU21D;63946;51.986;5.930;2023-05-24T16:51:07;16.67;46.70
75357;HTU21D;63946;51.986;5.930;2023-05-24T16:53:36;16.62;46.86
75357;HTU21D;63946;51.986;5.930;2023-05-24T16:56:11;16.62;46.76
75357;HTU21D;63946;51.986;5.930;2023-05-24T16:58:55;16.51;46.80
75357;HTU21D;63946;51.986;5.930;2023-05-24T17:01:24;16.44;46.90
75357;HTU21D;63946;51.986;5.930;2023-05-24T17:04:17;16.33;46.95
75357;HTU21D;63946;51.986;5.930;2023-05-24T17:06:45;16.25;47.07
75357;HTU21D;63946;51.986;5.930;2023-05-24T17:09:17;16.22;47.34
75357;HTU21D;63946;51.986;5.930;2023-05-24T17:11:49;16.27;47.23
75357;HTU21D;63946;51.986;5.930;2023-05-24T17:14:23;16.16;47.27
75357;HTU21D;63946;51.986;5.930;2023-05-24T17:16:52;16.15;47.48
75357;HTU21D;63946;51.986;5.930;2023-05-24T17:19:21;16.15;47.42
75357;HTU21D;63946;51.986;5.930;2023-05-24T17:21:50;16.13;47.53
75357;HTU21D;63946;51.986;5.930;2023-05-24T17:24:19;16.13;47.58
75357;HTU21D;63946;51.986;5.930;2023-05-24T17:26:55;16.13;47.55
75357;HTU21D;63946;51.986;5.930;2023-05-24T17:29:24;16.17;47.50
75357;HTU21D;63946;51.986;5.930;2023-05-24T17:31:54;16.22;47.32
75357;HTU21D;63946;51.986;5.930;2023-05-24T17:34:25;16.19;47.39
75357;HTU21D;63946;51.986;5.930;2023-05-24T17:36:54;16.14;47.60
75357;HTU21D;63946;51.986;5.930;2023-05-24T17:39:23;16.12;47.63
75357;HTU21D;63946;51.986;5.930;2023-05-24T17:42:03;16.03;47.70
75357;HTU21D;63946;51.986;5.930;2023-05-24T17:44:32;16.00;47.79
75357;HTU21D;63946;51.986;5.930;2023-05-24T17:47:04;16.00;47.86
75357;HTU21D;63946;51.986;5.930;2023-05-24T17:49:32;15.98;47.92
75357;HTU21D;63946;51.986;5.930;2023-05-24T17:52:04;15.92;48.03
75357;HTU21D;63946;51.986;5.930;2023-05-24T17:54:33;15.91;48.28
75357;HTU21D;63946;51.986;5.930;2023-05-24T17:57:03;15.88;48.32
75357;HTU21D;63946;51.986;5.930;2023-05-24T17:59:34;15.84;48.42
75357;HTU21D;63946;51.986;5.930;2023-05-24T18:02:03;15.76;48.41
75357;HTU21D;63946;51.986;5.930;2023-05-24T18:04:34;15.69;48.60
75357;HTU21D;63946;51.986;5.930;2023-05-24T18:07:03;15.72;48.69
75357;HTU21D;63946;51.986;5.930;2023-05-24T18:09:32;15.72;48.75
75357;HTU21D;63946;51.986;5.930;2023-05-24T18:12:04;15.73;48.76
75357;HTU21D;63946;51.986;5.930;2023-05-24T18:14:33;15.69;48.82
75357;HTU21D;63946;51.986;5.930;2023-05-24T18:17:03;15.67;48.98
75357;HTU21D;63946;51.986;5.930;2023-05-24T18:19:33;15.63;49.18
75357;HTU21D;63946;51.986;5.930;2023-05-24T18:22:05;15.62;49.37
75357;HTU21D;63946;51.986;5.930;2023-05-24T18:24:34;15.60;49.37
75357;HTU21D;63946;51.986;5.930;2023-05-24T18:27:05;15.62;49.66
75357;HTU21D;63946;51.986;5.930;2023-05-24T18:29:34;15.59;49.73
75357;HTU21D;63946;51.986;5.930;2023-05-24T18:32:04;15.60;49.67
75357;HTU21D;63946;51.986;5.930;2023-05-24T18:34:35;15.59;49.72
75357;HTU21D;63946;51.986;5.930;2023-05-24T18:37:04;15.55;49.85
75357;HTU21D;63946;51.986;5.930;2023-05-24T18:39:35;15.51;49.99
75357;HTU21D;63946;51.986;5.930;2023-05-24T18:42:04;15.46;50.24
75357;HTU21D;63946;51.986;5.930;2023-05-24T18:44:34;15.45;50.30
75357;HTU21D;63946;51.986;5.930;2023-05-24T18:47:08;15.42;50.46
75357;HTU21D;63946;51.986;5.930;2023-05-24T18:49:38;15.34;50.63
75357;HTU21D;63946;51.986;5.930;2023-05-24T18:52:07;15.30;50.94
75357;HTU21D;63946;51.986;5.930;2023-05-24T18:54:41;15.28;51.15
75357;HTU21D;63946;51.986;5.930;2023-05-24T18:57:10;15.21;51.28
75357;HTU21D;63946;51.986;5.930;2023-05-24T18:59:39;15.18;51.57
75357;HTU21D;63946;51.986;5.930;2023-05-24T19:02:10;15.13;51.69
75357;HTU21D;63946;51.986;5.930;2023-05-24T19:04:39;15.11;51.91
75357;HTU21D;63946;51.986;5.930;2023-05-24T19:07:13;15.07;52.14
75357;HTU21D;63946;51.986;5.930;2023-05-24T19:09:42;15.01;52.28
75357;HTU21D;63946;51.986;5.930;2023-05-24T19:12:11;14.97;52.53
75357;HTU21D;63946;51.986;5.930;2023-05-24T19:14:41;14.93;52.53
75357;HTU21D;63946;51.986;5.930;2023-05-24T19:17:09;14.91;52.59
75357;HTU21D;63946;51.986;5.930;2023-05-24T19:19:38;14.87;52.68
75357;HTU21D;63946;51.986;5.930;2023-05-24T19:22:08;14.83;52.75
75357;HTU21D;63946;51.986;5.930;2023-05-24T19:24:37;14.80;52.99
75357;HTU21D;63946;51.986;5.930;2023-05-24T19:27:08;14.73;53.17
75357;HTU21D;63946;51.986;5.930;2023-05-24T19:29:37;14.67;53.47
75357;HTU21D;63946;51.986;5.930;2023-05-24T19:32:08;14.59;53.67
75357;HTU21D;63946;51.986;5.930;2023-05-24T19:34:38;14.54;53.79
75357;HTU21D;63946;51.986;5.930;2023-05-24T19:37:07;14.45;54.09
75357;HTU21D;63946;51.986;5.930;2023-05-24T19:39:36;14.38;54.20
75357;HTU21D;63946;51.986;5.930;2023-05-24T19:42:05;14.34;54.33
75357;HTU21D;63946;51.986;5.930;2023-05-24T19:44:35;14.29;54.36
75357;HTU21D;63946;51.986;5.930;2023-05-24T19:47:05;14.25;54.52
75357;HTU21D;63946;51.986;5.930;2023-05-24T19:49:34;14.15;54.80
75357;HTU21D;63946;51.986;5.930;2023-05-24T19:52:06;14.11;55.04
75357;HTU21D;63946;51.986;5.930;2023-05-24T19:54:38;14.05;55.13
75357;HTU21D;63946;51.986;5.930;2023-05-24T19:57:07;13.97;55.42
75357;HTU21D;63946;51.986;5.930;2023-05-24T19:59:36;13.93;55.61
75357;HTU21D;63946;51.986;5.930;2023-05-24T20:02:05;13.90;55.73
75357;HTU21D;63946;51.986;5.930;2023-05-24T20:04:35;13.84;55.87
75357;HTU21D;63946;51.986;5.930;2023-05-24T20:07:07;13.83;55.83
75357;HTU21D;63946;51.986;5.930;2023-05-24T20:09:41;13.82;55.81
75357;HTU21D;63946;51.986;5.930;2023-05-24T20:12:10;13.78;56.00
75357;HTU21D;63946;51.986;5.930;2023-05-24T20:14:41;13.74;56.21
75357;HTU21D;63946;51.986;5.930;2023-05-24T20:17:13;13.70;56.31
75357;HTU21D;63946;51.986;5.930;2023-05-24T20:19:42;13.63;56.45
75357;HTU21D;63946;51.986;5.930;2023-05-24T20:22:13;13.60;56.60
75357;HTU21D;63946;51.986;5.930;2023-05-24T20:24:51;13.54;56.76
75357;HTU21D;63946;51.986;5.930;2023-05-24T20:27:20;13.50;56.88
75357;HTU21D;63946;51.986;5.930;2023-05-24T20:29:51;13.47;56.90
75357;HTU21D;63946;51.986;5.930;2023-05-24T20:32:22;13.40;57.06
75357;HTU21D;63946;51.986;5.930;2023-05-24T20:34:51;13.35;57.10
75357;HTU21D;63946;51.986;5.930;2023-05-24T20:37:20;13.31;57.22
75357;HTU21D;63946;51.986;5.930;2023-05-24T20:39:48;13.24;57.37
75357;HTU21D;63946;51.986;5.930;2023-05-24T20:42:17;13.22;57.52
75357;HTU21D;63946;51.986;5.930;2023-05-24T20:44:46;13.18;57.61
75357;HTU21D;63946;51.986;5.930;2023-05-24T20:47:16;13.15;57.63
75357;HTU21D;63946;51.986;5.930;2023-05-24T20:49:45;13.12;57.67
75357;HTU21D;63946;51.986;5.930;2023-05-24T20:52:13;13.15;57.72
75357;HTU21D;63946;51.986;5.930;2023-05-24T20:54:43;13.11;57.88
75357;HTU21D;63946;51.986;5.930;2023-05-24T20:57:12;13.07;58.04
75357;HTU21D;63946;51.986;5.930;2023-05-24T20:59:46;13.06;58.17
75357;HTU21D;63946;51.986;5.930;2023-05-24T21:02:15;13.00;58.36
75357;HTU21D;63946;51.986;5.930;2023-05-24T21:04:44;12.95;58.48
75357;HTU21D;63946;51.986;5.930;2023-05-24T21:07:15;12.86;58.74
75357;HTU21D;63946;51.986;5.930;2023-05-24T21:09:44;12.82;58.92
75357;HTU21D;63946;51.986;5.930;2023-05-24T21:12:13;12.77;59.09